sensor_id;sensor_type;location;lat;lon;timestamp;pressure;altitude;pressure_sealevel;temperature;humidity
54876;BME280;40764;48.472;8.166;2023-05-03T00:05:31;98971.78;;;7.30;100.00
54876;BME280;40764;48.472;8.166;2023-05-03T00:11:32;98975.75;;;7.23;100.00
54876;BME280;40764;48.472;8.166;2023-05-03T00:17:33;98978.16;;;7.19;100.00
54876;BME280;40764;48.472;8.166;2023-05-03T00:23:33;98967.44;;;7.29;100.00
54876;BME280;40764;48.472;8.166;2023-05-03T00:29:34;98960.72;;;7.15;100.00
54876;BME280;40764;48.472;8.166;2023-05-03T00:35:34;98956.66;;;7.18;100.00
54876;BME280;40764;48.472;8.166;2023-05-03T00:41:34;98955.63;;;6.97;100.00
54876;BME280;40764;48.472;8.166;2023-05-03T00:47:35;98958.44;;;7.29;100.00
54876;BME280;40764;48.472;8.166;2023-05-03T00:53:36;98950.81;;;7.26;100.00
54876;BME280;40764;48.472;8.166;2023-05-03T00:59:36;98948.97;;;7.09;100.00
54876;BME280;40764;48.472;8.166;2023-05-03T01:05:50;98953.59;;;7.09;100.00
54876;BME280;40764;48.472;8.166;2023-05-03T01:18:15;98937.84;;;6.89;100.00
54876;BME280;40764;48.472;8.166;2023-05-03T01:24:23;98926.47;;;6.92;100.00
54876;BME280;40764;48.472;8.166;2023-05-03T01:30:26;98922.03;;;7.08;100.00
54876;BME280;40764;48.472;8.166;2023-05-03T01:36:31;98910.00;;;6.99;100.00
54876;BME280;40764;48.472;8.166;2023-05-03T01:42:36;98915.13;;;6.95;100.00
54876;BME280;40764;48.472;8.166;2023-05-03T01:48:37;98909.84;;;6.89;100.00
54876;BME280;40764;48.472;8.166;2023-05-03T01:54:37;98914.72;;;6.65;100.00
54876;BME280;40764;48.472;8.166;2023-05-03T02:00:38;98914.31;;;6.73;100.00
54876;BME280;40764;48.472;8.166;2023-05-03T02:06:38;98911.59;;;6.73;100.00
54876;BME280;40764;48.472;8.166;2023-05-03T02:12:42;98909.63;;;6.68;100.00
54876;BME280;40764;48.472;8.166;2023-05-03T02:18:42;98907.53;;;6.53;100.00
54876;BME280;40764;48.472;8.166;2023-05-03T02:24:43;98905.63;;;6.54;100.00
54876;BME280;40764;48.472;8.166;2023-05-03T02:30:43;98917.69;;;6.63;100.00
54876;BME280;40764;48.472;8.166;2023-05-03T02:36:44;98907.91;;;6.62;100.00
54876;BME280;40764;48.472;8.166;2023-05-03T02:42:44;98909.44;;;6.75;100.00
54876;BME280;40764;48.472;8.166;2023-05-03T02:48:44;98914.50;;;6.66;100.00
54876;BME280;40764;48.472;8.166;2023-05-03T02:54:45;98908.59;;;6.52;100.00
54876;BME280;40764;48.472;8.166;2023-05-03T03:00:46;98907.47;;;6.70;100.00
54876;BME280;40764;48.472;8.166;2023-05-03T03:06:46;98902.66;;;6.56;100.00
54876;BME280;40764;48.472;8.166;2023-05-03T03:12:46;98902.31;;;6.69;100.00
54876;BME280;40764;48.472;8.166;2023-05-03T03:18:47;98910.63;;;6.40;100.00
54876;BME280;40764;48.472;8.166;2023-05-03T03:24:47;98918.66;;;6.35;100.00
54876;BME280;40764;48.472;8.166;2023-05-03T03:30:47;98912.59;;;6.45;100.00
54876;BME280;40764;48.472;8.166;2023-05-03T03:36:48;98912.19;;;6.36;100.00
54876;BME280;40764;48.472;8.166;2023-05-03T03:42:48;98918.53;;;6.42;100.00
54876;BME280;40764;48.472;8.166;2023-05-03T03:48:48;98924.69;;;6.37;100.00
54876;BME280;40764;48.472;8.166;2023-05-03T03:54:49;98925.44;;;6.33;100.00
54876;BME280;40764;48.472;8.166;2023-05-03T04:00:49;98916.16;;;6.29;100.00
54876;BME280;40764;48.472;8.166;2023-05-03T04:06:50;98923.25;;;6.13;100.00
54876;BME280;40764;48.472;8.166;2023-05-03T04:12:51;98918.19;;;6.38;100.00
54876;BME280;40764;48.472;8.166;2023-05-03T04:18:51;98910.22;;;6.32;100.00
54876;BME280;40764;48.472;8.166;2023-05-03T04:24:52;98907.34;;;6.38;100.00
54876;BME280;40764;48.472;8.166;2023-05-03T04:30:53;98914.81;;;6.31;100.00
54876;BME280;40764;48.472;8.166;2023-05-03T04:36:54;98915.09;;;6.51;100.00
54876;BME280;40764;48.472;8.166;2023-05-03T04:42:54;98921.22;;;6.42;100.00
54876;BME280;40764;48.472;8.166;2023-05-03T04:48:56;98914.41;;;6.39;100.00
54876;BME280;40764;48.472;8.166;2023-05-03T04:54:56;98919.16;;;6.49;100.00
54876;BME280;40764;48.472;8.166;2023-05-03T05:00:57;98930.13;;;6.59;100.00
54876;BME280;40764;48.472;8.166;2023-05-03T05:06:57;98930.06;;;6.54;100.00
54876;BME280;40764;48.472;8.166;2023-05-03T05:12:58;98928.31;;;6.87;100.00
54876;BME280;40764;48.472;8.166;2023-05-03T05:18:59;98933.38;;;7.00;100.00
54876;BME280;40764;48.472;8.166;2023-05-03T05:25:00;98934.16;;;7.22;100.00
54876;BME280;40764;48.472;8.166;2023-05-03T05:31:00;98928.38;;;7.40;100.00
54876;BME280;40764;48.472;8.166;2023-05-03T05:37:01;98937.63;;;7.71;100.00
54876;BME280;40764;48.472;8.166;2023-05-03T05:43:01;98937.81;;;7.92;100.00
54876;BME280;40764;48.472;8.166;2023-05-03T05:49:02;98928.47;;;8.15;100.00
54876;BME280;40764;48.472;8.166;2023-05-03T05:55:02;98922.13;;;8.41;100.00
54876;BME280;40764;48.472;8.166;2023-05-03T06:01:13;98925.84;;;8.82;100.00
54876;BME280;40764;48.472;8.166;2023-05-03T06:07:13;98924.94;;;9.29;100.00
54876;BME280;40764;48.472;8.166;2023-05-03T06:13:15;98922.25;;;9.54;100.00
54876;BME280;40764;48.472;8.166;2023-05-03T06:19:15;98924.72;;;9.81;100.00
54876;BME280;40764;48.472;8.166;2023-05-03T06:25:15;98922.25;;;10.05;99.25
54876;BME280;40764;48.472;8.166;2023-05-03T06:31:18;98932.63;;;10.39;98.47
54876;BME280;40764;48.472;8.166;2023-05-03T06:37:18;98928.44;;;10.77;97.33
54876;BME280;40764;48.472;8.166;2023-05-03T06:43:19;98917.81;;;11.25;94.39
54876;BME280;40764;48.472;8.166;2023-05-03T06:49:20;98909.91;;;11.62;90.62
54876;BME280;40764;48.472;8.166;2023-05-03T06:55:21;98911.97;;;11.86;88.57
54876;BME280;40764;48.472;8.166;2023-05-03T07:01:22;98902.78;;;12.00;87.35
54876;BME280;40764;48.472;8.166;2023-05-03T07:07:23;98895.09;;;12.31;86.08
54876;BME280;40764;48.472;8.166;2023-05-03T07:13:23;98891.63;;;12.50;85.72
54876;BME280;40764;48.472;8.166;2023-05-03T07:19:23;98893.56;;;12.73;83.50
54876;BME280;40764;48.472;8.166;2023-05-03T07:25:24;98888.69;;;12.89;83.29
54876;BME280;40764;48.472;8.166;2023-05-03T07:31:26;98896.59;;;13.14;82.37
54876;BME280;40764;48.472;8.166;2023-05-03T07:37:26;98898.06;;;13.30;80.71
54876;BME280;40764;48.472;8.166;2023-05-03T07:43:27;98896.19;;;13.45;78.34
54876;BME280;40764;48.472;8.166;2023-05-03T07:49:28;98891.59;;;13.59;78.86
54876;BME280;40764;48.472;8.166;2023-05-03T07:55:28;98879.63;;;13.69;79.30
54876;BME280;40764;48.472;8.166;2023-05-03T08:01:32;98883.72;;;13.85;77.41
54876;BME280;40764;48.472;8.166;2023-05-03T08:07:33;98881.22;;;13.88;76.32
54876;BME280;40764;48.472;8.166;2023-05-03T08:13:34;98881.50;;;14.19;77.92
54876;BME280;40764;48.472;8.166;2023-05-03T08:19:35;98880.91;;;14.36;74.15
54876;BME280;40764;48.472;8.166;2023-05-03T08:25:35;98887.09;;;14.61;75.15
54876;BME280;40764;48.472;8.166;2023-05-03T08:31:36;98883.94;;;14.81;74.33
54876;BME280;40764;48.472;8.166;2023-05-03T08:37:40;98878.00;;;15.01;72.21
54876;BME280;40764;48.472;8.166;2023-05-03T08:43:44;98872.09;;;15.08;69.49
54876;BME280;40764;48.472;8.166;2023-05-03T08:49:45;98882.00;;;15.45;68.92
54876;BME280;40764;48.472;8.166;2023-05-03T08:55:46;98878.38;;;15.22;70.52
54876;BME280;40764;48.472;8.166;2023-05-03T09:01:46;98882.88;;;15.18;70.92
54876;BME280;40764;48.472;8.166;2023-05-03T09:08:10;98884.44;;;15.46;69.42
54876;BME280;40764;48.472;8.166;2023-05-03T09:14:12;98883.13;;;15.44;69.67
54876;BME280;40764;48.472;8.166;2023-05-03T09:20:15;98883.91;;;15.58;69.28
54876;BME280;40764;48.472;8.166;2023-05-03T09:26:33;98884.88;;;15.40;68.91
54876;BME280;40764;48.472;8.166;2023-05-03T09:32:46;98884.59;;;15.86;67.15
54876;BME280;40764;48.472;8.166;2023-05-03T09:38:50;98864.09;;;16.54;62.60
54876;BME280;40764;48.472;8.166;2023-05-03T09:44:51;98860.41;;;17.16;60.20
54876;BME280;40764;48.472;8.166;2023-05-03T09:50:51;98864.66;;;17.48;56.36
54876;BME280;40764;48.472;8.166;2023-05-03T09:56:53;98861.44;;;17.72;55.19
54876;BME280;40764;48.472;8.166;2023-05-03T10:02:59;98870.00;;;17.61;51.88
54876;BME280;40764;48.472;8.166;2023-05-03T10:09:23;98852.78;;;17.56;52.00
54876;BME280;40764;48.472;8.166;2023-05-03T10:15:26;98848.09;;;17.74;51.92
54876;BME280;40764;48.472;8.166;2023-05-03T10:22:03;98844.97;;;18.01;52.99
54876;BME280;40764;48.472;8.166;2023-05-03T10:28:08;98845.28;;;18.08;50.25
54876;BME280;40764;48.472;8.166;2023-05-03T10:34:22;98835.31;;;18.16;47.44
54876;BME280;40764;48.472;8.166;2023-05-03T10:40:40;98827.34;;;18.23;49.56
54876;BME280;40764;48.472;8.166;2023-05-03T10:46:42;98817.66;;;18.38;48.72
54876;BME280;40764;48.472;8.166;2023-05-03T10:52:46;98814.97;;;18.58;48.69
54876;BME280;40764;48.472;8.166;2023-05-03T10:58:48;98809.31;;;18.55;48.67
54876;BME280;40764;48.472;8.166;2023-05-03T11:04:58;98804.63;;;18.76;46.85
54876;BME280;40764;48.472;8.166;2023-05-03T11:10:59;98794.75;;;18.96;46.96
54876;BME280;40764;48.472;8.166;2023-05-03T11:17:00;98798.06;;;19.31;46.50
54876;BME280;40764;48.472;8.166;2023-05-03T11:23:01;98791.88;;;19.55;47.13
54876;BME280;40764;48.472;8.166;2023-05-03T11:29:01;98784.63;;;19.63;45.30
54876;BME280;40764;48.472;8.166;2023-05-03T11:35:02;98783.81;;;19.41;41.74
54876;BME280;40764;48.472;8.166;2023-05-03T11:41:12;98796.19;;;19.98;43.06
54876;BME280;40764;48.472;8.166;2023-05-03T11:47:13;98782.47;;;20.14;42.35
54876;BME280;40764;48.472;8.166;2023-05-03T11:53:14;98778.47;;;19.90;42.04
54876;BME280;40764;48.472;8.166;2023-05-03T11:59:15;98770.66;;;20.17;41.45
54876;BME280;40764;48.472;8.166;2023-05-03T12:05:15;98771.38;;;20.26;41.30
54876;BME280;40764;48.472;8.166;2023-05-03T12:11:16;98767.88;;;20.17;42.24
54876;BME280;40764;48.472;8.166;2023-05-03T12:17:40;98759.63;;;20.41;41.60
54876;BME280;40764;48.472;8.166;2023-05-03T12:23:45;98753.03;;;20.46;40.02
54876;BME280;40764;48.472;8.166;2023-05-03T12:29:46;98748.03;;;20.27;41.97
54876;BME280;40764;48.472;8.166;2023-05-03T12:35:46;98724.44;;;20.57;38.66
54876;BME280;40764;48.472;8.166;2023-05-03T12:41:46;98724.66;;;21.17;38.38
54876;BME280;40764;48.472;8.166;2023-05-03T12:47:47;98724.03;;;21.36;39.36
54876;BME280;40764;48.472;8.166;2023-05-03T12:53:47;98724.53;;;21.53;38.17
54876;BME280;40764;48.472;8.166;2023-05-03T12:59:49;98714.53;;;21.37;36.80
54876;BME280;40764;48.472;8.166;2023-05-03T13:05:52;98703.28;;;22.05;37.94
54876;BME280;40764;48.472;8.166;2023-05-03T13:11:52;98691.94;;;21.82;37.06
54876;BME280;40764;48.472;8.166;2023-05-03T13:17:54;98694.25;;;21.80;37.81
54876;BME280;40764;48.472;8.166;2023-05-03T13:23:55;98688.34;;;21.97;36.43
54876;BME280;40764;48.472;8.166;2023-05-03T13:29:56;98676.97;;;22.18;35.69
54876;BME280;40764;48.472;8.166;2023-05-03T13:35:57;98675.44;;;22.20;35.28
54876;BME280;40764;48.472;8.166;2023-05-03T13:41:58;98661.50;;;22.71;38.23
54876;BME280;40764;48.472;8.166;2023-05-03T13:47:59;98668.97;;;22.67;35.75
54876;BME280;40764;48.472;8.166;2023-05-03T13:54:01;98660.06;;;22.42;34.19
54876;BME280;40764;48.472;8.166;2023-05-03T14:00:02;98649.81;;;22.81;35.28
54876;BME280;40764;48.472;8.166;2023-05-03T14:06:04;98644.81;;;23.29;33.04
54876;BME280;40764;48.472;8.166;2023-05-03T14:12:07;98641.28;;;23.32;33.27
54876;BME280;40764;48.472;8.166;2023-05-03T14:18:20;98635.75;;;23.55;31.38
54876;BME280;40764;48.472;8.166;2023-05-03T14:24:21;98626.13;;;23.53;32.67
54876;BME280;40764;48.472;8.166;2023-05-03T14:30:22;98626.03;;;23.91;32.43
54876;BME280;40764;48.472;8.166;2023-05-03T14:36:22;98621.06;;;24.04;32.44
54876;BME280;40764;48.472;8.166;2023-05-03T14:42:23;98606.78;;;24.09;34.47
54876;BME280;40764;48.472;8.166;2023-05-03T14:48:23;98603.59;;;24.33;33.32
54876;BME280;40764;48.472;8.166;2023-05-03T14:54:23;98611.41;;;24.51;32.86
54876;BME280;40764;48.472;8.166;2023-05-03T15:00:24;98620.88;;;24.43;33.09
54876;BME280;40764;48.472;8.166;2023-05-03T15:06:28;98607.69;;;24.39;31.41
54876;BME280;40764;48.472;8.166;2023-05-03T15:12:32;98611.47;;;24.84;30.83
54876;BME280;40764;48.472;8.166;2023-05-03T15:18:35;98626.25;;;24.28;30.10
54876;BME280;40764;48.472;8.166;2023-05-03T15:24:36;98621.91;;;24.87;30.35
54876;BME280;40764;48.472;8.166;2023-05-03T15:30:36;98609.25;;;24.67;33.03
54876;BME280;40764;48.472;8.166;2023-05-03T15:36:36;98610.00;;;24.34;30.23
54876;BME280;40764;48.472;8.166;2023-05-03T15:42:41;98615.34;;;24.46;29.87
54876;BME280;40764;48.472;8.166;2023-05-03T15:48:42;98609.03;;;24.83;30.56
54876;BME280;40764;48.472;8.166;2023-05-03T15:54:42;98611.69;;;24.42;30.30
54876;BME280;40764;48.472;8.166;2023-05-03T16:00:42;98617.22;;;25.28;31.66
54876;BME280;40764;48.472;8.166;2023-05-03T16:06:43;98617.38;;;24.79;31.59
54876;BME280;40764;48.472;8.166;2023-05-03T16:12:43;98613.41;;;23.74;31.26
54876;BME280;40764;48.472;8.166;2023-05-03T16:18:43;98608.22;;;23.99;32.23
54876;BME280;40764;48.472;8.166;2023-05-03T16:24:44;98603.94;;;24.05;32.88
54876;BME280;40764;48.472;8.166;2023-05-03T16:30:46;98599.88;;;23.76;31.16
54876;BME280;40764;48.472;8.166;2023-05-03T16:36:49;98585.34;;;23.90;32.39
54876;BME280;40764;48.472;8.166;2023-05-03T16:42:49;98589.81;;;23.49;32.23
54876;BME280;40764;48.472;8.166;2023-05-03T16:48:51;98584.63;;;23.28;31.67
54876;BME280;40764;48.472;8.166;2023-05-03T16:54:55;98590.84;;;23.41;32.87
54876;BME280;40764;48.472;8.166;2023-05-03T17:00:55;98590.28;;;23.32;32.16
54876;BME280;40764;48.472;8.166;2023-05-03T17:06:57;98592.53;;;23.91;32.50
54876;BME280;40764;48.472;8.166;2023-05-03T17:12:58;98585.41;;;23.06;32.52
54876;BME280;40764;48.472;8.166;2023-05-03T17:19:00;98591.28;;;23.43;32.37
54876;BME280;40764;48.472;8.166;2023-05-03T17:25:05;98591.44;;;22.89;32.77
54876;BME280;40764;48.472;8.166;2023-05-03T17:31:05;98593.09;;;23.12;34.11
54876;BME280;40764;48.472;8.166;2023-05-03T17:37:06;98591.09;;;22.55;35.24
54876;BME280;40764;48.472;8.166;2023-05-03T17:43:06;98602.22;;;22.55;34.72
54876;BME280;40764;48.472;8.166;2023-05-03T17:49:07;98610.44;;;21.81;35.30
54876;BME280;40764;48.472;8.166;2023-05-03T17:55:08;98610.41;;;21.34;38.08
54876;BME280;40764;48.472;8.166;2023-05-03T18:01:09;98616.28;;;21.17;37.29
54876;BME280;40764;48.472;8.166;2023-05-03T18:07:10;98615.91;;;20.62;37.35
54876;BME280;40764;48.472;8.166;2023-05-03T18:13:10;98618.22;;;20.48;38.72
54876;BME280;40764;48.472;8.166;2023-05-03T18:19:11;98614.28;;;19.52;41.74
54876;BME280;40764;48.472;8.166;2023-05-03T18:25:14;98613.88;;;18.96;42.07
54876;BME280;40764;48.472;8.166;2023-05-03T18:31:14;98621.78;;;18.43;46.57
54876;BME280;40764;48.472;8.166;2023-05-03T18:37:15;98610.84;;;17.67;46.91
54876;BME280;40764;48.472;8.166;2023-05-03T18:43:15;98620.22;;;17.19;49.05
54876;BME280;40764;48.472;8.166;2023-05-03T18:49:17;98627.41;;;16.51;51.84
54876;BME280;40764;48.472;8.166;2023-05-03T18:55:17;98630.56;;;16.01;54.68
54876;BME280;40764;48.472;8.166;2023-05-03T19:01:18;98639.72;;;15.71;54.68
54876;BME280;40764;48.472;8.166;2023-05-03T19:07:18;98637.75;;;15.40;55.57
54876;BME280;40764;48.472;8.166;2023-05-03T19:13:20;98648.53;;;15.28;56.76
54876;BME280;40764;48.472;8.166;2023-05-03T19:19:21;98640.50;;;14.87;57.78
54876;BME280;40764;48.472;8.166;2023-05-03T19:25:23;98641.97;;;14.71;59.05
54876;BME280;40764;48.472;8.166;2023-05-03T19:31:24;98645.59;;;14.57;58.95
54876;BME280;40764;48.472;8.166;2023-05-03T19:37:25;98640.94;;;14.44;59.35
54876;BME280;40764;48.472;8.166;2023-05-03T19:43:25;98647.63;;;14.02;62.55
54876;BME280;40764;48.472;8.166;2023-05-03T19:49:26;98652.91;;;13.85;61.48
54876;BME280;40764;48.472;8.166;2023-05-03T19:55:28;98656.59;;;13.67;62.78
54876;BME280;40764;48.472;8.166;2023-05-03T20:01:29;98657.16;;;13.50;64.16
54876;BME280;40764;48.472;8.166;2023-05-03T20:07:30;98675.06;;;13.33;65.61
54876;BME280;40764;48.472;8.166;2023-05-03T20:13:30;98677.50;;;13.16;66.22
54876;BME280;40764;48.472;8.166;2023-05-03T20:19:31;98674.97;;;12.87;67.48
54876;BME280;40764;48.472;8.166;2023-05-03T20:25:32;98676.38;;;12.66;67.77
54876;BME280;40764;48.472;8.166;2023-05-03T20:31:40;98668.47;;;12.64;68.29
54876;BME280;40764;48.472;8.166;2023-05-03T20:37:41;98669.53;;;12.50;69.75
54876;BME280;40764;48.472;8.166;2023-05-03T20:43:42;98671.94;;;12.32;70.70
54876;BME280;40764;48.472;8.166;2023-05-03T20:49:42;98663.94;;;12.17;72.59
54876;BME280;40764;48.472;8.166;2023-05-03T20:55:45;98657.97;;;11.91;73.13
54876;BME280;40764;48.472;8.166;2023-05-03T21:01:45;98663.84;;;12.03;72.86
54876;BME280;40764;48.472;8.166;2023-05-03T21:08:14;98664.97;;;11.73;73.77
54876;BME280;40764;48.472;8.166;2023-05-03T21:14:15;98669.72;;;11.68;74.76
54876;BME280;40764;48.472;8.166;2023-05-03T21:20:15;98662.69;;;11.33;75.86
54876;BME280;40764;48.472;8.166;2023-05-03T21:26:15;98663.41;;;11.14;78.27
54876;BME280;40764;48.472;8.166;2023-05-03T21:32:16;98650.25;;;11.16;77.52
54876;BME280;40764;48.472;8.166;2023-05-03T21:38:16;98655.91;;;11.25;77.99
54876;BME280;40764;48.472;8.166;2023-05-03T21:44:17;98649.19;;;11.12;78.95
54876;BME280;40764;48.472;8.166;2023-05-03T21:50:17;98650.72;;;10.95;80.90
54876;BME280;40764;48.472;8.166;2023-05-03T21:56:18;98645.91;;;10.81;80.82
54876;BME280;40764;48.472;8.166;2023-05-03T22:02:19;98639.72;;;10.71;81.62
54876;BME280;40764;48.472;8.166;2023-05-03T22:08:22;98639.69;;;10.76;82.16
54876;BME280;40764;48.472;8.166;2023-05-03T22:14:24;98625.41;;;10.45;83.71
54876;BME280;40764;48.472;8.166;2023-05-03T22:20:26;98615.53;;;10.49;83.30
54876;BME280;40764;48.472;8.166;2023-05-03T22:26:27;98613.59;;;10.54;83.68
54876;BME280;40764;48.472;8.166;2023-05-03T22:32:28;98602.13;;;10.52;83.96
54876;BME280;40764;48.472;8.166;2023-05-03T22:38:28;98604.13;;;10.42;84.91
54876;BME280;40764;48.472;8.166;2023-05-03T22:44:30;98603.81;;;10.48;84.97
54876;BME280;40764;48.472;8.166;2023-05-03T22:50:30;98606.88;;;10.42;84.30
54876;BME280;40764;48.472;8.166;2023-05-03T22:56:31;98602.50;;;10.41;83.21
54876;BME280;40764;48.472;8.166;2023-05-03T23:02:31;98595.66;;;10.43;84.78
54876;BME280;40764;48.472;8.166;2023-05-03T23:08:32;98597.72;;;10.57;84.08
54876;BME280;40764;48.472;8.166;2023-05-03T23:14:32;98591.72;;;10.54;83.58
54876;BME280;40764;48.472;8.166;2023-05-03T23:20:32;98589.94;;;10.74;82.14
54876;BME280;40764;48.472;8.166;2023-05-03T23:26:33;98596.75;;;10.76;83.06
54876;BME280;40764;48.472;8.166;2023-05-03T23:32:34;98595.63;;;10.77;82.88
54876;BME280;40764;48.472;8.166;2023-05-03T23:38:34;98590.56;;;10.61;84.27
54876;BME280;40764;48.472;8.166;2023-05-03T23:44:38;98586.34;;;10.44;85.01
54876;BME280;40764;48.472;8.166;2023-05-03T23:50:38;98585.78;;;10.47;84.65
54876;BME280;40764;48.472;8.166;2023-05-03T23:56:38;98580.88;;;10.39;85.93
